sensor_id;sensor_type;location;lat;lon;timestamp;pressure;altitude;pressure_sealevel;temperature;humidity
13869;BME280;7004;48.206;16.402;2022-09-09T00:04:05;99542.50;;;17.22;87.87
13869;BME280;7004;48.206;16.402;2022-09-09T00:07:19;99539.69;;;17.24;90.54
13869;BME280;7004;48.206;16.402;2022-09-09T00:15:43;99546.06;;;17.03;92.99
13869;BME280;7004;48.206;16.402;2022-09-09T00:22:21;99556.59;;;17.15;90.71
13869;BME280;7004;48.206;16.402;2022-09-09T00:24:54;99544.94;;;16.96;90.78
13869;BME280;7004;48.206;16.402;2022-09-09T00:27:54;99539.16;;;17.01;87.69
13869;BME280;7004;48.206;16.402;2022-09-09T00:30:27;99534.25;;;17.06;87.05
13869;BME280;7004;48.206;16.402;2022-09-09T00:33:03;99530.31;;;17.00;89.44
13869;BME280;7004;48.206;16.402;2022-09-09T00:35:44;99537.06;;;17.05;90.56
13869;BME280;7004;48.206;16.402;2022-09-09T00:38:34;99533.00;;;16.91;94.75
13869;BME280;7004;48.206;16.402;2022-09-09T00:41:10;99530.44;;;16.60;93.19
13869;BME280;7004;48.206;16.402;2022-09-09T00:43:40;99532.00;;;16.72;96.42
13869;BME280;7004;48.206;16.402;2022-09-09T00:52:19;99529.00;;;16.07;99.95
13869;BME280;7004;48.206;16.402;2022-09-09T00:57:54;99536.75;;;16.20;99.59
13869;BME280;7004;48.206;16.402;2022-09-09T01:00:30;99542.66;;;16.14;100.00
13869;BME280;7004;48.206;16.402;2022-09-09T01:06:13;99555.81;;;15.44;100.00
13869;BME280;7004;48.206;16.402;2022-09-09T01:18:11;99570.53;;;15.48;100.00
13869;BME280;7004;48.206;16.402;2022-09-09T01:26:43;99576.81;;;15.17;100.00
13869;BME280;7004;48.206;16.402;2022-09-09T01:29:15;99577.63;;;15.07;100.00
13869;BME280;7004;48.206;16.402;2022-09-09T01:32:00;99574.03;;;14.97;100.00
13869;BME280;7004;48.206;16.402;2022-09-09T01:34:36;99586.28;;;15.10;100.00
13869;BME280;7004;48.206;16.402;2022-09-09T01:37:09;99583.97;;;15.16;100.00
13869;BME280;7004;48.206;16.402;2022-09-09T01:39:41;99578.94;;;15.02;100.00
13869;BME280;7004;48.206;16.402;2022-09-09T01:42:13;99573.03;;;14.77;100.00
13869;BME280;7004;48.206;16.402;2022-09-09T01:44:42;99574.13;;;14.75;100.00
13869;BME280;7004;48.206;16.402;2022-09-09T01:47:09;99572.59;;;14.93;100.00
13869;BME280;7004;48.206;16.402;2022-09-09T01:49:36;99579.09;;;14.68;100.00
13869;BME280;7004;48.206;16.402;2022-09-09T01:52:02;99585.75;;;14.74;100.00
13869;BME280;7004;48.206;16.402;2022-09-09T01:54:31;99581.28;;;14.63;100.00
13869;BME280;7004;48.206;16.402;2022-09-09T02:03:06;99578.72;;;14.29;100.00
13869;BME280;7004;48.206;16.402;2022-09-09T02:08:47;99581.44;;;14.61;100.00
13869;BME280;7004;48.206;16.402;2022-09-09T02:11:17;99576.44;;;14.68;100.00
13869;BME280;7004;48.206;16.402;2022-09-09T02:13:46;99583.53;;;14.58;100.00
13869;BME280;7004;48.206;16.402;2022-09-09T02:16:34;99586.47;;;14.32;100.00
13869;BME280;7004;48.206;16.402;2022-09-09T02:19:31;99570.47;;;14.43;100.00
13869;BME280;7004;48.206;16.402;2022-09-09T02:22:00;99570.03;;;14.71;100.00
13869;BME280;7004;48.206;16.402;2022-09-09T02:24:32;99576.88;;;14.84;100.00
13869;BME280;7004;48.206;16.402;2022-09-09T02:27:01;99575.34;;;14.71;100.00
13869;BME280;7004;48.206;16.402;2022-09-09T02:29:42;99568.88;;;14.63;100.00
13869;BME280;7004;48.206;16.402;2022-09-09T02:32:20;99571.66;;;14.51;100.00
13869;BME280;7004;48.206;16.402;2022-09-09T02:34:57;99568.44;;;14.36;100.00
13869;BME280;7004;48.206;16.402;2022-09-09T02:37:45;99574.63;;;14.25;100.00
13869;BME280;7004;48.206;16.402;2022-09-09T02:40:15;99573.13;;;14.43;100.00
13869;BME280;7004;48.206;16.402;2022-09-09T02:42:47;99587.09;;;14.13;100.00
13869;BME280;7004;48.206;16.402;2022-09-09T02:45:19;99592.28;;;14.15;100.00
13869;BME280;7004;48.206;16.402;2022-09-09T02:51:05;99588.19;;;14.22;100.00
13869;BME280;7004;48.206;16.402;2022-09-09T02:56:43;99584.91;;;14.30;100.00
13869;BME280;7004;48.206;16.402;2022-09-09T02:59:13;99586.22;;;14.24;100.00
13869;BME280;7004;48.206;16.402;2022-09-09T03:01:39;99596.31;;;13.75;100.00
13869;BME280;7004;48.206;16.402;2022-09-09T03:04:06;99595.19;;;14.01;100.00
13869;BME280;7004;48.206;16.402;2022-09-09T03:06:37;99596.16;;;13.99;100.00
13869;BME280;7004;48.206;16.402;2022-09-09T03:09:09;99604.50;;;13.95;100.00
13869;BME280;7004;48.206;16.402;2022-09-09T03:11:43;99601.47;;;14.11;100.00
13869;BME280;7004;48.206;16.402;2022-09-09T03:14:17;99594.38;;;13.77;100.00
13869;BME280;7004;48.206;16.402;2022-09-09T03:16:59;99596.91;;;13.79;100.00
13869;BME280;7004;48.206;16.402;2022-09-09T03:19:32;99597.75;;;13.80;100.00
13869;BME280;7004;48.206;16.402;2022-09-09T03:22:19;99595.78;;;14.15;100.00
13869;BME280;7004;48.206;16.402;2022-09-09T03:24:58;99591.44;;;14.03;100.00
13869;BME280;7004;48.206;16.402;2022-09-09T03:27:27;99583.19;;;14.40;100.00
13869;BME280;7004;48.206;16.402;2022-09-09T03:29:57;99591.66;;;14.23;100.00
13869;BME280;7004;48.206;16.402;2022-09-09T03:32:27;99586.84;;;14.05;100.00
13869;BME280;7004;48.206;16.402;2022-09-09T03:34:53;99593.53;;;13.88;100.00
13869;BME280;7004;48.206;16.402;2022-09-09T03:37:19;99583.25;;;13.95;100.00
13869;BME280;7004;48.206;16.402;2022-09-09T03:39:46;99579.25;;;14.12;100.00
13869;BME280;7004;48.206;16.402;2022-09-09T03:42:14;99578.13;;;14.26;100.00
13869;BME280;7004;48.206;16.402;2022-09-09T03:44:40;99578.53;;;14.10;100.00
13869;BME280;7004;48.206;16.402;2022-09-09T03:47:08;99578.97;;;14.26;100.00
13869;BME280;7004;48.206;16.402;2022-09-09T03:49:38;99582.72;;;14.35;100.00
13869;BME280;7004;48.206;16.402;2022-09-09T03:52:04;99588.75;;;14.26;100.00
13869;BME280;7004;48.206;16.402;2022-09-09T03:54:31;99588.56;;;14.50;100.00
13869;BME280;7004;48.206;16.402;2022-09-09T03:56:59;99584.84;;;14.41;100.00
13869;BME280;7004;48.206;16.402;2022-09-09T03:59:26;99595.75;;;14.27;100.00
13869;BME280;7004;48.206;16.402;2022-09-09T04:01:54;99589.50;;;14.05;100.00
13869;BME280;7004;48.206;16.402;2022-09-09T04:04:21;99578.34;;;14.34;100.00
13869;BME280;7004;48.206;16.402;2022-09-09T04:06:47;99582.94;;;14.43;100.00
13869;BME280;7004;48.206;16.402;2022-09-09T04:09:14;99587.63;;;14.51;100.00
13869;BME280;7004;48.206;16.402;2022-09-09T04:11:42;99587.72;;;14.49;100.00
13869;BME280;7004;48.206;16.402;2022-09-09T04:14:08;99588.97;;;14.45;100.00
13869;BME280;7004;48.206;16.402;2022-09-09T04:16:34;99584.56;;;14.12;100.00
13869;BME280;7004;48.206;16.402;2022-09-09T04:19:05;99583.13;;;14.19;100.00
13869;BME280;7004;48.206;16.402;2022-09-09T04:21:33;99592.16;;;14.28;100.00
13869;BME280;7004;48.206;16.402;2022-09-09T04:24:00;99594.66;;;14.29;100.00
13869;BME280;7004;48.206;16.402;2022-09-09T04:26:26;99596.88;;;14.13;100.00
13869;BME280;7004;48.206;16.402;2022-09-09T04:28:52;99607.72;;;14.21;100.00
13869;BME280;7004;48.206;16.402;2022-09-09T04:31:21;99599.41;;;14.26;100.00
13869;BME280;7004;48.206;16.402;2022-09-09T04:33:50;99608.00;;;14.07;100.00
13869;BME280;7004;48.206;16.402;2022-09-09T04:36:18;99612.94;;;13.55;100.00
13869;BME280;7004;48.206;16.402;2022-09-09T04:38:46;99616.34;;;13.57;100.00
13869;BME280;7004;48.206;16.402;2022-09-09T04:41:15;99616.81;;;14.07;100.00
13869;BME280;7004;48.206;16.402;2022-09-09T04:43:42;99614.06;;;14.09;100.00
13869;BME280;7004;48.206;16.402;2022-09-09T04:46:09;99620.41;;;14.29;100.00
13869;BME280;7004;48.206;16.402;2022-09-09T04:48:36;99628.03;;;14.33;100.00
13869;BME280;7004;48.206;16.402;2022-09-09T04:51:05;99620.41;;;14.29;100.00
13869;BME280;7004;48.206;16.402;2022-09-09T04:53:32;99622.59;;;14.35;100.00
13869;BME280;7004;48.206;16.402;2022-09-09T04:56:10;99631.19;;;14.27;100.00
13869;BME280;7004;48.206;16.402;2022-09-09T04:58:38;99628.44;;;14.06;100.00
13869;BME280;7004;48.206;16.402;2022-09-09T05:01:11;99641.00;;;14.04;100.00
13869;BME280;7004;48.206;16.402;2022-09-09T05:03:38;99627.69;;;14.04;100.00
13869;BME280;7004;48.206;16.402;2022-09-09T05:06:14;99640.25;;;14.02;100.00
13869;BME280;7004;48.206;16.402;2022-09-09T05:08:44;99636.66;;;13.81;100.00
13869;BME280;7004;48.206;16.402;2022-09-09T05:11:27;99635.41;;;13.62;100.00
13869;BME280;7004;48.206;16.402;2022-09-09T05:13:54;99627.31;;;13.41;100.00
13869;BME280;7004;48.206;16.402;2022-09-09T05:16:22;99629.38;;;13.71;100.00
13869;BME280;7004;48.206;16.402;2022-09-09T05:18:49;99634.56;;;13.95;100.00
13869;BME280;7004;48.206;16.402;2022-09-09T05:21:19;99629.53;;;14.04;100.00
13869;BME280;7004;48.206;16.402;2022-09-09T05:23:46;99631.56;;;14.00;100.00
13869;BME280;7004;48.206;16.402;2022-09-09T05:26:19;99633.75;;;14.06;100.00
13869;BME280;7004;48.206;16.402;2022-09-09T05:28:46;99634.81;;;13.92;100.00
13869;BME280;7004;48.206;16.402;2022-09-09T05:31:14;99637.84;;;13.76;100.00
13869;BME280;7004;48.206;16.402;2022-09-09T05:33:44;99634.22;;;13.89;100.00
13869;BME280;7004;48.206;16.402;2022-09-09T05:36:14;99631.44;;;13.90;100.00
13869;BME280;7004;48.206;16.402;2022-09-09T05:38:41;99629.59;;;14.13;100.00
13869;BME280;7004;48.206;16.402;2022-09-09T05:41:08;99639.59;;;14.43;100.00
13869;BME280;7004;48.206;16.402;2022-09-09T05:43:37;99640.53;;;14.76;100.00
13869;BME280;7004;48.206;16.402;2022-09-09T05:46:09;99648.84;;;14.83;100.00
13869;BME280;7004;48.206;16.402;2022-09-09T05:48:38;99643.19;;;14.76;100.00
13869;BME280;7004;48.206;16.402;2022-09-09T05:51:08;99636.34;;;14.95;100.00
13869;BME280;7004;48.206;16.402;2022-09-09T05:53:35;99630.94;;;14.85;100.00
13869;BME280;7004;48.206;16.402;2022-09-09T05:56:09;99634.41;;;14.97;100.00
13869;BME280;7004;48.206;16.402;2022-09-09T05:58:36;99634.41;;;14.97;100.00
13869;BME280;7004;48.206;16.402;2022-09-09T06:01:13;99628.41;;;15.04;100.00
13869;BME280;7004;48.206;16.402;2022-09-09T06:03:43;99633.06;;;15.23;100.00
13869;BME280;7004;48.206;16.402;2022-09-09T06:06:14;99632.09;;;15.24;100.00
13869;BME280;7004;48.206;16.402;2022-09-09T06:08:43;99630.06;;;15.17;100.00
13869;BME280;7004;48.206;16.402;2022-09-09T06:11:14;99628.00;;;15.20;100.00
13869;BME280;7004;48.206;16.402;2022-09-09T06:13:43;99621.97;;;15.18;100.00
13869;BME280;7004;48.206;16.402;2022-09-09T06:16:16;99613.72;;;15.21;100.00
13869;BME280;7004;48.206;16.402;2022-09-09T06:18:43;99613.78;;;15.31;100.00
13869;BME280;7004;48.206;16.402;2022-09-09T06:21:19;99611.59;;;15.46;100.00
13869;BME280;7004;48.206;16.402;2022-09-09T06:23:46;99620.13;;;15.61;100.00
13869;BME280;7004;48.206;16.402;2022-09-09T06:26:43;99624.78;;;15.89;100.00
13869;BME280;7004;48.206;16.402;2022-09-09T06:29:10;99627.38;;;15.80;100.00
13869;BME280;7004;48.206;16.402;2022-09-09T06:31:37;99626.59;;;15.89;100.00
13869;BME280;7004;48.206;16.402;2022-09-09T06:34:08;99612.56;;;16.27;100.00
13869;BME280;7004;48.206;16.402;2022-09-09T06:36:37;99610.06;;;16.55;100.00
13869;BME280;7004;48.206;16.402;2022-09-09T06:39:05;99613.19;;;16.70;100.00
13869;BME280;7004;48.206;16.402;2022-09-09T06:41:32;99606.09;;;16.99;97.88
13869;BME280;7004;48.206;16.402;2022-09-09T06:43:59;99605.63;;;17.23;98.62
13869;BME280;7004;48.206;16.402;2022-09-09T06:46:29;99612.09;;;17.78;95.28
13869;BME280;7004;48.206;16.402;2022-09-09T06:48:58;99609.25;;;17.42;95.78
13869;BME280;7004;48.206;16.402;2022-09-09T06:51:31;99619.25;;;17.87;92.31
13869;BME280;7004;48.206;16.402;2022-09-09T06:54:00;99616.75;;;18.13;91.53
13869;BME280;7004;48.206;16.402;2022-09-09T06:56:35;99630.47;;;18.00;93.78
13869;BME280;7004;48.206;16.402;2022-09-09T06:59:06;99622.19;;;18.03;93.81
13869;BME280;7004;48.206;16.402;2022-09-09T07:01:37;99618.72;;;17.83;95.22
13869;BME280;7004;48.206;16.402;2022-09-09T07:04:04;99627.75;;;18.10;93.87
13869;BME280;7004;48.206;16.402;2022-09-09T07:06:40;99619.72;;;19.19;88.24
13869;BME280;7004;48.206;16.402;2022-09-09T07:09:11;99617.53;;;18.96;86.46
13869;BME280;7004;48.206;16.402;2022-09-09T07:11:48;99615.75;;;18.87;86.22
13869;BME280;7004;48.206;16.402;2022-09-09T07:14:16;99612.31;;;18.95;87.14
13869;BME280;7004;48.206;16.402;2022-09-09T07:16:44;99621.50;;;19.54;80.50
13869;BME280;7004;48.206;16.402;2022-09-09T07:19:12;99617.06;;;19.01;81.67
13869;BME280;7004;48.206;16.402;2022-09-09T07:21:44;99622.44;;;19.97;80.13
13869;BME280;7004;48.206;16.402;2022-09-09T07:24:11;99611.97;;;20.20;78.70
13869;BME280;7004;48.206;16.402;2022-09-09T07:26:39;99615.03;;;19.39;81.65
13869;BME280;7004;48.206;16.402;2022-09-09T07:29:07;99619.59;;;19.47;82.78
13869;BME280;7004;48.206;16.402;2022-09-09T07:31:38;99615.13;;;19.11;84.82
13869;BME280;7004;48.206;16.402;2022-09-09T07:34:05;99620.69;;;19.36;84.20
13869;BME280;7004;48.206;16.402;2022-09-09T07:36:35;99619.63;;;20.07;81.58
13869;BME280;7004;48.206;16.402;2022-09-09T07:39:06;99619.94;;;20.46;79.65
13869;BME280;7004;48.206;16.402;2022-09-09T07:41:38;99614.34;;;20.99;75.46
13869;BME280;7004;48.206;16.402;2022-09-09T07:44:16;99616.22;;;21.47;75.19
13869;BME280;7004;48.206;16.402;2022-09-09T07:46:44;99618.50;;;22.31;73.62
13869;BME280;7004;48.206;16.402;2022-09-09T07:49:11;99613.78;;;22.64;68.36
13869;BME280;7004;48.206;16.402;2022-09-09T07:51:44;99619.69;;;22.28;68.96
13869;BME280;7004;48.206;16.402;2022-09-09T07:54:14;99626.13;;;21.22;72.80
13869;BME280;7004;48.206;16.402;2022-09-09T07:56:41;99619.41;;;21.02;71.84
13869;BME280;7004;48.206;16.402;2022-09-09T07:59:09;99628.47;;;21.01;72.61
13869;BME280;7004;48.206;16.402;2022-09-09T08:01:45;99628.63;;;21.24;70.83
13869;BME280;7004;48.206;16.402;2022-09-09T08:04:20;99632.19;;;21.49;72.12
13869;BME280;7004;48.206;16.402;2022-09-09T08:06:59;99625.28;;;21.05;76.18
13869;BME280;7004;48.206;16.402;2022-09-09T08:09:27;99629.31;;;21.09;77.79
13869;BME280;7004;48.206;16.402;2022-09-09T08:11:56;99642.69;;;20.68;75.98
13869;BME280;7004;48.206;16.402;2022-09-09T08:14:24;99646.00;;;20.62;74.26
13869;BME280;7004;48.206;16.402;2022-09-09T08:16:51;99642.69;;;20.68;76.73
13869;BME280;7004;48.206;16.402;2022-09-09T08:19:19;99654.47;;;20.33;78.05
13869;BME280;7004;48.206;16.402;2022-09-09T08:21:45;99636.72;;;21.07;74.90
13869;BME280;7004;48.206;16.402;2022-09-09T08:24:13;99639.34;;;20.83;73.68
13869;BME280;7004;48.206;16.402;2022-09-09T08:26:47;99634.50;;;21.11;72.69
13869;BME280;7004;48.206;16.402;2022-09-09T08:29:16;99631.53;;;21.38;73.91
13869;BME280;7004;48.206;16.402;2022-09-09T08:31:49;99640.28;;;22.04;69.75
13869;BME280;7004;48.206;16.402;2022-09-09T08:34:17;99640.94;;;22.15;70.87
13869;BME280;7004;48.206;16.402;2022-09-09T08:36:48;99648.16;;;21.42;71.54
13869;BME280;7004;48.206;16.402;2022-09-09T08:39:17;99640.22;;;21.08;72.25
13869;BME280;7004;48.206;16.402;2022-09-09T08:50:21;99628.31;;;23.99;62.02
13869;BME280;7004;48.206;16.402;2022-09-09T08:55:52;99620.81;;;23.95;61.04
13869;BME280;7004;48.206;16.402;2022-09-09T08:58:25;99618.84;;;22.90;63.17
13869;BME280;7004;48.206;16.402;2022-09-09T09:04:28;99623.78;;;23.09;63.08
13869;BME280;7004;48.206;16.402;2022-09-09T09:07:13;99619.28;;;23.25;57.89
13869;BME280;7004;48.206;16.402;2022-09-09T09:10:00;99610.41;;;24.43;55.68
13869;BME280;7004;48.206;16.402;2022-09-09T09:12:41;99599.53;;;25.37;54.81
13869;BME280;7004;48.206;16.402;2022-09-09T09:15:25;99592.88;;;25.68;53.71
13869;BME280;7004;48.206;16.402;2022-09-09T09:17:51;99590.78;;;25.35;55.56
13869;BME280;7004;48.206;16.402;2022-09-09T09:23:36;99595.78;;;24.52;55.65
13869;BME280;7004;48.206;16.402;2022-09-09T09:26:09;99581.88;;;26.52;51.06
13869;BME280;7004;48.206;16.402;2022-09-09T09:28:39;99586.38;;;27.27;48.21
13869;BME280;7004;48.206;16.402;2022-09-09T09:31:12;99590.03;;;26.11;51.92
13869;BME280;7004;48.206;16.402;2022-09-09T09:33:51;99586.97;;;26.27;49.15
13869;BME280;7004;48.206;16.402;2022-09-09T09:36:21;99584.75;;;25.68;48.35
13869;BME280;7004;48.206;16.402;2022-09-09T09:38:56;99582.69;;;25.70;49.06
13869;BME280;7004;48.206;16.402;2022-09-09T09:41:43;99582.53;;;25.78;47.80
13869;BME280;7004;48.206;16.402;2022-09-09T09:46:49;99579.88;;;25.22;51.37
13869;BME280;7004;48.206;16.402;2022-09-09T09:49:15;99572.59;;;25.50;50.05
13869;BME280;7004;48.206;16.402;2022-09-09T09:51:43;99583.84;;;23.95;50.93
13869;BME280;7004;48.206;16.402;2022-09-09T09:54:28;99567.69;;;24.68;51.12
13869;BME280;7004;48.206;16.402;2022-09-09T09:56:55;99570.56;;;24.67;51.31
13869;BME280;7004;48.206;16.402;2022-09-09T09:59:37;99576.47;;;24.19;53.69
13869;BME280;7004;48.206;16.402;2022-09-09T10:02:23;99568.25;;;25.06;49.79
13869;BME280;7004;48.206;16.402;2022-09-09T10:05:08;99557.94;;;24.95;50.81
13869;BME280;7004;48.206;16.402;2022-09-09T10:07:37;99558.41;;;24.41;51.29
13869;BME280;7004;48.206;16.402;2022-09-09T10:10:05;99561.94;;;24.99;50.83
13869;BME280;7004;48.206;16.402;2022-09-09T10:13:09;99577.31;;;24.56;50.33
13869;BME280;7004;48.206;16.402;2022-09-09T10:19:02;99572.94;;;24.18;54.41
13869;BME280;7004;48.206;16.402;2022-09-09T10:24:58;99557.34;;;26.12;49.60
13869;BME280;7004;48.206;16.402;2022-09-09T10:30:23;99559.78;;;25.72;47.12
13869;BME280;7004;48.206;16.402;2022-09-09T10:33:10;99562.25;;;25.61;47.80
13869;BME280;7004;48.206;16.402;2022-09-09T10:36:13;99563.56;;;24.72;50.61
13869;BME280;7004;48.206;16.402;2022-09-09T10:38:55;99562.25;;;25.11;50.23
13869;BME280;7004;48.206;16.402;2022-09-09T10:50:43;99552.56;;;25.80;49.02
13869;BME280;7004;48.206;16.402;2022-09-09T10:56:17;99558.66;;;25.88;48.93
13869;BME280;7004;48.206;16.402;2022-09-09T10:58:55;99562.19;;;25.26;50.19
13869;BME280;7004;48.206;16.402;2022-09-09T11:01:38;99572.94;;;25.41;50.66
13869;BME280;7004;48.206;16.402;2022-09-09T11:06:53;99581.69;;;24.06;51.88
13869;BME280;7004;48.206;16.402;2022-09-09T11:09:28;99577.84;;;24.45;51.09
13869;BME280;7004;48.206;16.402;2022-09-09T11:11:58;99560.47;;;24.54;50.83
13869;BME280;7004;48.206;16.402;2022-09-09T11:14:35;99574.44;;;23.91;54.26
13869;BME280;7004;48.206;16.402;2022-09-09T11:17:26;99564.66;;;24.56;52.00
13869;BME280;7004;48.206;16.402;2022-09-09T11:19:53;99561.91;;;24.35;54.29
13869;BME280;7004;48.206;16.402;2022-09-09T11:22:35;99570.66;;;24.37;55.65
13869;BME280;7004;48.206;16.402;2022-09-09T11:25:35;99565.28;;;24.58;54.34
13869;BME280;7004;48.206;16.402;2022-09-09T11:28:32;99565.28;;;24.07;51.49
13869;BME280;7004;48.206;16.402;2022-09-09T11:40:27;99562.19;;;24.25;49.60
13869;BME280;7004;48.206;16.402;2022-09-09T11:43:02;99559.50;;;24.25;50.63
13869;BME280;7004;48.206;16.402;2022-09-09T11:45:32;99560.03;;;24.35;53.07
13869;BME280;7004;48.206;16.402;2022-09-09T11:48:01;99555.53;;;24.42;50.95
13869;BME280;7004;48.206;16.402;2022-09-09T11:50:35;99548.66;;;24.40;48.44
13869;BME280;7004;48.206;16.402;2022-09-09T11:53:21;99544.53;;;24.80;47.98
13869;BME280;7004;48.206;16.402;2022-09-09T11:56:10;99542.31;;;24.11;50.94
13869;BME280;7004;48.206;16.402;2022-09-09T11:58:53;99545.53;;;24.22;49.42
13869;BME280;7004;48.206;16.402;2022-09-09T12:09:49;99543.88;;;24.78;50.19
13869;BME280;7004;48.206;16.402;2022-09-09T12:12:35;99539.13;;;24.80;49.06
13869;BME280;7004;48.206;16.402;2022-09-09T12:17:46;99530.81;;;24.60;48.73
13869;BME280;7004;48.206;16.402;2022-09-09T12:20:20;99524.03;;;25.42;47.89
13869;BME280;7004;48.206;16.402;2022-09-09T12:28:52;99515.13;;;25.55;45.27
13869;BME280;7004;48.206;16.402;2022-09-09T12:32:45;99513.78;;;26.07;44.21
13869;BME280;7004;48.206;16.402;2022-09-09T12:35:26;99512.25;;;25.98;43.75
13869;BME280;7004;48.206;16.402;2022-09-09T12:37:58;99512.44;;;25.55;46.04
13869;BME280;7004;48.206;16.402;2022-09-09T12:40:34;99509.31;;;25.23;46.63
13869;BME280;7004;48.206;16.402;2022-09-09T12:43:22;99505.44;;;25.33;47.02
13869;BME280;7004;48.206;16.402;2022-09-09T12:45:52;99507.91;;;24.78;47.28
13869;BME280;7004;48.206;16.402;2022-09-09T12:48:39;99508.03;;;24.91;47.37
13869;BME280;7004;48.206;16.402;2022-09-09T12:51:26;99503.53;;;24.77;47.26
13869;BME280;7004;48.206;16.402;2022-09-09T12:53:54;99497.31;;;25.04;47.44
13869;BME280;7004;48.206;16.402;2022-09-09T12:56:31;99495.34;;;24.92;48.17
13869;BME280;7004;48.206;16.402;2022-09-09T12:58:58;99491.75;;;24.41;51.34
13869;BME280;7004;48.206;16.402;2022-09-09T13:01:31;99486.03;;;24.73;49.12
13869;BME280;7004;48.206;16.402;2022-09-09T13:03:58;99479.91;;;24.64;48.99
13869;BME280;7004;48.206;16.402;2022-09-09T13:06:32;99488.56;;;24.16;48.97
13869;BME280;7004;48.206;16.402;2022-09-09T13:09:02;99481.31;;;24.38;48.31
13869;BME280;7004;48.206;16.402;2022-09-09T13:11:42;99478.25;;;24.63;48.48
13869;BME280;7004;48.206;16.402;2022-09-09T13:14:25;99475.06;;;24.16;49.64
13869;BME280;7004;48.206;16.402;2022-09-09T13:16:57;99467.78;;;24.38;49.09
13869;BME280;7004;48.206;16.402;2022-09-09T13:19:24;99465.03;;;24.10;49.71
13869;BME280;7004;48.206;16.402;2022-09-09T13:21:55;99453.59;;;24.08;48.86
13869;BME280;7004;48.206;16.402;2022-09-09T13:24:34;99460.88;;;24.29;48.71
13869;BME280;7004;48.206;16.402;2022-09-09T13:27:31;99462.59;;;24.37;49.35
13869;BME280;7004;48.206;16.402;2022-09-09T13:30:00;99462.22;;;24.18;48.47
13869;BME280;7004;48.206;16.402;2022-09-09T13:32:28;99472.91;;;23.75;47.73
13869;BME280;7004;48.206;16.402;2022-09-09T13:35:00;99479.50;;;23.88;48.94
13869;BME280;7004;48.206;16.402;2022-09-09T13:37:39;99472.75;;;23.77;48.73
13869;BME280;7004;48.206;16.402;2022-09-09T13:40:22;99473.88;;;24.04;48.73
13869;BME280;7004;48.206;16.402;2022-09-09T13:42:55;99475.63;;;23.75;49.57
13869;BME280;7004;48.206;16.402;2022-09-09T13:45:25;99476.00;;;23.72;50.22
13869;BME280;7004;48.206;16.402;2022-09-09T13:47:55;99474.69;;;23.24;48.85
13869;BME280;7004;48.206;16.402;2022-09-09T13:50:27;99464.28;;;23.50;49.38
13869;BME280;7004;48.206;16.402;2022-09-09T13:52:57;99456.81;;;23.52;48.99
13869;BME280;7004;48.206;16.402;2022-09-09T13:55:27;99461.31;;;23.45;49.43
13869;BME280;7004;48.206;16.402;2022-09-09T13:58:00;99456.56;;;23.18;50.14
13869;BME280;7004;48.206;16.402;2022-09-09T14:00:29;99458.63;;;23.30;50.92
13869;BME280;7004;48.206;16.402;2022-09-09T14:02:57;99457.41;;;23.48;50.38
13869;BME280;7004;48.206;16.402;2022-09-09T14:05:24;99453.13;;;23.39;50.74
13869;BME280;7004;48.206;16.402;2022-09-09T14:07:51;99455.06;;;23.45;50.65
13869;BME280;7004;48.206;16.402;2022-09-09T14:10:17;99459.63;;;23.29;51.68
13869;BME280;7004;48.206;16.402;2022-09-09T14:12:43;99465.13;;;23.36;50.93
13869;BME280;7004;48.206;16.402;2022-09-09T14:15:11;99464.81;;;23.01;50.66
13869;BME280;7004;48.206;16.402;2022-09-09T14:17:38;99464.75;;;23.09;51.08
13869;BME280;7004;48.206;16.402;2022-09-09T14:20:08;99469.66;;;23.06;52.69
13869;BME280;7004;48.206;16.402;2022-09-09T14:22:36;99478.94;;;23.03;51.53
13869;BME280;7004;48.206;16.402;2022-09-09T14:25:03;99474.59;;;23.17;52.01
13869;BME280;7004;48.206;16.402;2022-09-09T14:27:30;99479.97;;;23.02;50.25
13869;BME280;7004;48.206;16.402;2022-09-09T14:29:56;99472.16;;;23.07;52.03
13869;BME280;7004;48.206;16.402;2022-09-09T14:32:23;99481.19;;;23.29;48.99
13869;BME280;7004;48.206;16.402;2022-09-09T14:34:50;99480.47;;;23.36;51.20
13869;BME280;7004;48.206;16.402;2022-09-09T14:37:17;99478.97;;;23.18;50.98
13869;BME280;7004;48.206;16.402;2022-09-09T14:39:44;99491.63;;;23.18;51.91
13869;BME280;7004;48.206;16.402;2022-09-09T14:42:13;99492.84;;;22.23;55.74
13869;BME280;7004;48.206;16.402;2022-09-09T14:44:39;99499.88;;;22.32;57.84
13869;BME280;7004;48.206;16.402;2022-09-09T14:47:07;99490.16;;;22.23;59.68
13869;BME280;7004;48.206;16.402;2022-09-09T14:49:37;99490.84;;;22.17;62.49
13869;BME280;7004;48.206;16.402;2022-09-09T14:52:04;99488.03;;;21.79;65.95
13869;BME280;7004;48.206;16.402;2022-09-09T14:54:31;99484.28;;;21.49;69.17
13869;BME280;7004;48.206;16.402;2022-09-09T14:56:58;99485.59;;;21.61;69.77
13869;BME280;7004;48.206;16.402;2022-09-09T14:59:25;99485.75;;;21.59;69.51
13869;BME280;7004;48.206;16.402;2022-09-09T15:01:52;99486.13;;;21.56;71.31
13869;BME280;7004;48.206;16.402;2022-09-09T15:04:19;99478.75;;;21.81;70.22
13869;BME280;7004;48.206;16.402;2022-09-09T15:06:46;99482.81;;;21.30;71.55
13869;BME280;7004;48.206;16.402;2022-09-09T15:09:15;99486.47;;;21.53;71.11
13869;BME280;7004;48.206;16.402;2022-09-09T15:11:41;99490.06;;;21.77;69.94
13869;BME280;7004;48.206;16.402;2022-09-09T15:14:09;99486.16;;;21.32;72.67
13869;BME280;7004;48.206;16.402;2022-09-09T15:16:36;99481.38;;;21.67;71.83
13869;BME280;7004;48.206;16.402;2022-09-09T15:19:03;99471.25;;;22.08;70.30
13869;BME280;7004;48.206;16.402;2022-09-09T15:21:34;99463.81;;;22.10;70.14
13869;BME280;7004;48.206;16.402;2022-09-09T15:24:01;99460.28;;;22.10;70.05
13869;BME280;7004;48.206;16.402;2022-09-09T15:26:30;99465.78;;;21.37;72.02
13869;BME280;7004;48.206;16.402;2022-09-09T15:28:57;99466.19;;;21.82;71.73
13869;BME280;7004;48.206;16.402;2022-09-09T15:31:28;99461.59;;;22.22;69.78